Latest Coastal Weather Observations for Yanakie

IDV60701

Issued at 6:02 pm EST Thursday 25 August 2016 (issued every 10 minutes, with the page automatically refreshed every 10 minutes)

About coastal observations | Map of coastal stations | Coastal observations for VIC | Marine services | Other Formats
Station Details ID: 085301 Name: YANAKIE Lat: -38.81 Lon: 146.19 Height: 13.3 m
Data from the previous 72 hours. | See also: Recent months at Yanakie
Date/Time
EST
Temp
°C
Wind Pressure Rain since
9am
mm
Weather Cloud Vis
km
Sea
Height
m
Swell
Dir  Spd
kts
Gust
kts
hPa Trend Height
m
Period
s
Dir
25/06:00pm 10.1 SW 11 16 1015.4 - 0.0 - - - - - - -
25/05:30pm 10.4 WSW 12 15 1015.0 - 0.0 - - - - - - -
25/05:00pm 11.0 SW 12 17 1014.7 - 0.0 - - - - - - -
25/04:30pm 11.0 SW 13 17 1014.6 - 0.0 - - - - - - -
25/04:00pm 11.6 SW 13 17 1014.5 - 0.0 - - - - - - -
25/03:30pm 11.8 SW 14 18 1014.4 - 0.0 - - - - - - -
25/03:00pm 11.6 SW 14 20 1014.3 - 0.0 - - - - - - -
25/02:30pm 12.0 SW 16 20 1013.9 - 0.0 - - - - - - -
25/02:00pm 12.2 SW 15 20 1013.6 - 0.0 - - - - - - -
25/01:30pm 12.0 SW 16 20 1013.6 - 0.0 - - - - - - -
25/01:00pm 12.4 SW 15 21 1013.4 - 0.0 - - - - - - -
25/12:30pm 11.8 SW 14 19 1013.5 - 0.0 - - - - - - -
25/12:00pm 11.6 SW 13 17 1013.6 - 0.0 - - - - - - -
25/11:30am 11.5 SW 15 18 1013.6 - 0.0 - - - - - - -
25/11:00am 11.2 SW 12 15 1013.5 - 0.0 - - - - - - -
25/10:30am 11.3 SW 13 17 1013.2 - 0.0 - - - - - - -
25/10:00am 11.4 SW 12 15 1013.1 - 0.0 - - - - - - -
25/09:30am 10.5 SW 11 14 1013.0 - 0.0 - - - - - - -
25/09:00am 8.7 SW 11 14 1013.0 - 5.4 Recent precip. - - - - - -
25/08:30am 8.3 W 10 16 1012.7 - 5.4 - - - - - - -
25/08:00am 7.0 NW 5 7 1012.5 - 5.0 - - - - - - -
25/07:30am 6.4 NW 5 6 1012.3 - 5.0 - - - - - - -
25/07:00am 6.9 N 3 4 1012.2 - 5.0 - - - - - - -
25/06:30am 6.8 NE 1 3 1011.9 - 5.0 - - - - - - -
25/06:00am 6.5 WNW 5 10 1011.9 - 5.0 Rain - - - - - -
25/05:30am 7.2 W 7 10 1011.5 - 1.4 - - - - - - -
25/05:00am 6.7 W 7 9 1011.3 - 0.8 - - - - - - -
25/04:30am 6.1 WNW 5 7 1011.2 - 0.8 - - - - - - -
25/04:00am 5.5 WNW 6 7 1011.2 - 0.8 - - - - - - -
25/03:30am 6.5 WNW 8 10 1011.2 - 0.8 - - - - - - -
25/03:00am 6.5 WNW 7 9 1011.3 - 0.8 - - - - - - -
25/02:30am 5.8 WNW 6 7 1011.4 - 0.8 - - - - - - -
25/02:00am 5.8 NW 4 5 1011.5 - 0.8 - - - - - - -
25/01:30am 7.3 W 6 10 1011.8 - 0.8 - - - - - - -
25/01:00am 7.1 WSW 3 4 1011.9 - 0.2 - - - - - - -
25/12:30am 7.6 WNW 8 10 1012.1 - 0.2 - - - - - - -
25/12:00am 7.4 W 5 7 1012.2 - 0.2 - - - - - - -
 
Date/Time
EST
Temp
°C
Wind Pressure Rain since
9am
mm
Weather Cloud Vis
km
Sea
Height
m
Swell
Dir  Spd
kts
Gust
kts
hPa Trend Height
m
Period
s
Dir
24/11:30pm 7.1 WNW 6 8 1012.6 - 0.2 - - - - - - -
24/11:00pm 6.5 NW 6 7 1012.5 - 0.2 - - - - - - -
24/10:30pm 6.3 WNW 5 7 1012.8 - 0.2 - - - - - - -
24/10:00pm 6.0 WNW 4 5 1013.1 - 0.2 - - - - - - -
24/09:30pm 6.8 CALM 0 2 1013.2 - 0.2 - - - - - - -
24/09:00pm 6.4 WNW 5 6 1013.3 - 0.2 - - - - - - -
24/08:30pm 5.3 WNW 5 5 1013.3 - 0.2 - - - - - - -
24/08:00pm 5.7 WNW 4 5 1013.4 - 0.2 - - - - - - -
24/07:30pm 6.4 WNW 5 7 1013.4 - 0.2 - - - - - - -
24/07:00pm 7.0 WNW 4 5 1013.4 - 0.2 - - - - - - -
24/06:30pm 8.5 W 4 6 1013.3 - 0.2 - - - - - - -
24/06:00pm 8.5 WSW 5 7 1013.1 - 0.2 - - - - - - -
24/05:30pm 9.4 SW 5 6 1013.0 - 0.2 - - - - - - -
24/05:00pm 9.8 SW 5 6 1013.1 - 0.2 - - - - - - -
24/04:30pm 10.5 SW 6 9 1013.2 - 0.2 - - - - - - -
24/04:00pm 11.2 SW 7 10 1013.2 - 0.2 - - - - - - -
24/03:30pm 11.0 SW 7 10 1013.3 - 0.2 - - - - - - -
24/03:00pm 11.5 SW 5 8 1013.4 - 0.2 - - - - - - -
24/02:30pm 11.3 SW 6 9 1013.6 - 0.2 - - - - - - -
24/02:00pm 11.1 SW 4 7 1013.7 - 0.2 - - - - - - -
24/01:30pm 10.8 SW 8 11 1013.7 - 0.2 - - - - - - -
24/01:00pm 11.2 SSW 7 11 1013.9 - 0.2 - - - - - - -
24/12:30pm 11.4 SW 5 8 1014.3 - 0.2 - - - - - - -
24/12:00pm 11.9 CALM 0 2 1014.6 - 0.2 - - - - - - -
24/11:30am 10.7 W 2 3 1015.4 - 0.2 - - - - - - -
24/11:00am 9.8 NW 1 3 1015.7 - 0.2 - - - - - - -
24/10:30am 8.8 NW 2 3 1015.8 - 0.2 - - - - - - -
24/10:00am 8.9 SSW 4 5 1016.0 - 0.0 - - - - - - -
24/09:30am 9.0 CALM 0 0 1016.1 - 0.0 - - - - - - -
24/09:00am 8.4 CALM 0 0 1016.3 - 0.2 - - - - - - -
24/08:30am 7.5 N 2 2 1016.4 - 0.2 - - - - - - -
24/08:00am 7.3 NNE 3 4 1016.5 - 0.2 - - - - - - -
24/07:30am 6.9 E 2 2 1016.4 - 0.2 - - - - - - -
24/07:00am 6.2 SSE 3 5 1016.5 - 0.2 - - - - - - -
24/06:30am 5.6 NNE 3 3 1016.2 - 0.2 - - - - - - -
24/06:00am 6.5 NNE 4 5 1016.1 - 0.2 Recent precip. - - - - - -
24/05:30am 5.6 NE 2 4 1016.1 - 0.2 - - - - - - -
24/05:00am 5.7 NE 2 3 1016.2 - 0.0 - - - - - - -
24/04:30am 5.8 SW 1 3 1016.2 - 0.0 - - - - - - -
24/04:00am 5.7 WNW 3 4 1016.0 - 0.0 - - - - - - -
24/03:30am 6.7 NW 5 6 1016.0 - 0.0 - - - - - - -
24/03:00am 6.6 WNW 5 7 1016.1 - 0.0 - - - - - - -
24/02:30am 3.8 WSW 3 7 1016.6 - 0.0 - - - - - - -
24/02:00am 4.1 CALM 0 0 1016.8 - 0.0 - - - - - - -
24/01:30am 4.3 N 2 3 1017.0 - 0.0 - - - - - - -
24/01:00am 4.4 N 2 3 1017.0 - 0.0 - - - - - - -
24/12:30am 4.8 CALM 0 0 1017.0 - 0.0 - - - - - - -
24/12:00am 5.6 CALM 0 0 1017.0 - 0.0 - - - - - - -
 
Date/Time
EST
Temp
°C
Wind Pressure Rain since
9am
mm
Weather Cloud Vis
km
Sea
Height
m
Swell
Dir  Spd
kts
Gust
kts
hPa Trend Height
m
Period
s
Dir
23/11:30pm 5.4 CALM 0 0 1017.1 - 0.0 - - - - - - -
23/11:00pm 5.6 CALM 0 2 1017.0 - 0.0 - - - - - - -
23/10:30pm 5.8 SW 2 3 1017.3 - 0.0 - - - - - - -
23/10:00pm 6.2 WSW 3 4 1017.5 - 0.0 - - - - - - -
23/09:30pm 6.5 WSW 3 4 1017.8 - 0.0 - - - - - - -
23/09:00pm 7.2 SW 4 5 1017.8 - 0.0 - - - - - - -
23/08:30pm 6.7 W 4 5 1017.9 - 0.0 - - - - - - -
23/08:00pm 7.4 W 6 7 1017.9 - 0.0 - - - - - - -
23/07:30pm 7.0 W 5 6 1017.9 - 0.0 - - - - - - -
23/07:00pm 8.6 W 6 7 1017.8 - 0.0 - - - - - - -
23/06:30pm 9.1 W 7 8 1017.7 - 0.0 - - - - - - -
23/06:00pm 9.2 WSW 6 6 1017.5 - 0.0 - - - - - - -
23/05:30pm 9.6 WSW 7 8 1017.3 - 0.0 - - - - - - -
23/05:00pm 10.3 WSW 4 7 1017.3 - 0.0 - - - - - - -
23/04:30pm 9.5 SW 10 13 1017.2 - 0.0 - - - - - - -
23/04:00pm 10.9 SW 8 9 1016.9 - 0.0 - - - - - - -
23/03:30pm 11.9 SW 8 10 1016.6 - 0.0 - - - - - - -
23/03:00pm 11.3 WSW 10 12 1016.3 - 0.0 - - - - - - -
23/02:30pm 11.7 WSW 8 12 1016.4 - 0.0 - - - - - - -
23/02:00pm 11.5 SW 11 15 1016.4 - 0.0 - - - - - - -
23/01:30pm 11.4 SSW 10 13 1016.3 - 0.0 - - - - - - -
23/01:00pm 11.9 SW 8 13 1016.3 - 0.0 - - - - - - -
23/12:30pm 11.3 SW 11 15 1016.5 - 0.0 - - - - - - -
23/12:00pm 11.5 SSW 9 14 1016.8 - 0.0 - - - - - - -
23/11:30am 11.8 SSW 9 15 1017.0 - 0.0 - - - - - - -
23/11:00am 12.0 WSW 8 12 1017.3 - 0.0 - - - - - - -
23/10:30am 12.0 W 8 12 1017.4 - 0.0 - - - - - - -
23/10:00am 11.6 WNW 7 9 1017.5 - 0.0 - - - - - - -
23/09:30am 10.9 WNW 6 8 1017.4 - 0.0 - - - - - - -
23/09:00am 10.4 WNW 5 8 1017.3 - 0.2 - - - - - - -
23/08:30am 7.9 CALM 0 0 1017.2 - 0.2 - - - - - - -
23/08:00am 7.6 NW 3 5 1017.0 - 0.2 - - - - - - -
23/07:30am 7.0 NW 4 5 1016.5 - 0.2 - - - - - - -
23/07:00am 5.3 WNW 2 5 1016.3 - 0.2 - - - - - - -
23/06:30am 4.7 NW 2 2 1016.2 - 0.2 - - - - - - -
23/06:00am 4.4 NW 1 2 1015.9 - 0.2 - - - - - - -
23/05:30am 4.7 CALM 0 0 1015.6 - 0.2 - - - - - - -
23/05:00am 5.0 CALM 0 0 1015.6 - 0.2 - - - - - - -
23/04:30am 5.0 NW 3 3 1015.4 - 0.2 - - - - - - -
23/04:00am 5.0 WNW 2 3 1015.4 - 0.2 - - - - - - -
23/03:30am 4.4 WNW 3 4 1015.2 - 0.2 - - - - - - -
23/03:00am 5.0 CALM 0 0 1015.2 - 0.2 - - - - - - -
23/02:30am 6.2 SSW 3 4 1015.4 - 0.2 - - - - - - -
23/02:00am 6.4 SSW 4 5 1015.6 - 0.2 - - - - - - -
23/01:30am 7.4 SSW 4 4 1015.8 - 0.2 - - - - - - -
23/01:00am 7.6 SW 2 3 1015.8 - 0.2 - - - - - - -
23/12:30am 8.0 CALM 0 0 1015.8 - 0.2 - - - - - - -
23/12:00am 7.7 WNW 1 2 1015.7 - 0.2 - - - - - - -
 
Date/Time
EST
Temp
°C
Wind Pressure Rain since
9am
mm
Weather Cloud Vis
km
Sea
Height
m
Swell
Dir  Spd
kts
Gust
kts
hPa Trend Height
m
Period
s
Dir
22/11:30pm 7.8 CALM 0 0 1015.7 - 0.2 - - - - - - -
22/11:00pm 7.9 NE 1 1 1015.7 - 0.2 - - - - - - -
22/10:30pm 8.4 NE 2 3 1015.8 - 0.2 - - - - - - -
22/10:00pm 8.5 CALM 0 0 1015.7 - 0.2 - - - - - - -
22/09:30pm 8.5 CALM 0 0 1015.5 - 0.2 - - - - - - -
22/09:00pm 8.6 CALM 0 1 1015.5 - 0.2 - - - - - - -
22/08:30pm 8.6 CALM 0 0 1015.2 - 0.2 - - - - - - -
22/08:00pm 8.8 CALM 0 0 1015.1 - 0.2 - - - - - - -
22/07:30pm 8.7 CALM 0 0 1014.7 - 0.2 - - - - - - -
22/07:00pm 8.8 CALM 0 0 1014.5 - 0.2 - - - - - - -
22/06:30pm 8.3 SSW 1 2 1014.1 - 0.2 - - - - - - -

Other Formats:

Comma delimited format used in spreadsheet applications
http://www.bom.gov.au/fwo/IDV60701/IDV60701.94911.axf

JavaScript Object Notation format (JSON) in row-major order
http://www.bom.gov.au/fwo/IDV60701/IDV60701.94911.json